Map

Track Data

SID SEASON NUMBER BASIN SUBBASIN NAME ISO_TIME NATURE LAT LON WMO_WIND WMO_PRES WMO_AGENCY TRACK_TYPE DIST2LAND LANDFALL IFLAG USA_AGENCY USA_ATCF_ID USA_LAT USA_LON USA_RECORD USA_STATUS USA_WIND USA_PRES USA_SSHS USA_R34_NE USA_R34_SE USA_R34_SW USA_R34_NW USA_R50_NE USA_R50_SE USA_R50_SW USA_R50_NW USA_R64_NE USA_R64_SE USA_R64_SW USA_R64_NW USA_POCI USA_ROCI USA_RMW USA_EYE TOKYO_LAT TOKYO_LON TOKYO_GRADE TOKYO_WIND TOKYO_PRES TOKYO_R50_DIR TOKYO_R50_LONG TOKYO_R50_SHORT TOKYO_R30_DIR TOKYO_R30_LONG TOKYO_R30_SHORT TOKYO_LAND CMA_LAT CMA_LON CMA_CAT CMA_WIND CMA_PRES HKO_LAT HKO_LON HKO_CAT HKO_WIND HKO_PRES NEWDELHI_LAT NEWDELHI_LON NEWDELHI_GRADE NEWDELHI_WIND NEWDELHI_PRES NEWDELHI_CI NEWDELHI_DP NEWDELHI_POCI REUNION_LAT REUNION_LON REUNION_TYPE REUNION_WIND REUNION_PRES REUNION_TNUM REUNION_CI REUNION_RMW REUNION_R34_NE REUNION_R34_SE REUNION_R34_SW REUNION_R34_NW REUNION_R50_NE REUNION_R50_SE REUNION_R50_SW REUNION_R50_NW REUNION_R64_NE REUNION_R64_SE REUNION_R64_SW REUNION_R64_NW BOM_LAT BOM_LON BOM_TYPE BOM_WIND BOM_PRES BOM_TNUM BOM_CI BOM_RMW BOM_R34_NE BOM_R34_SE BOM_R34_SW BOM_R34_NW BOM_R50_NE BOM_R50_SE BOM_R50_SW BOM_R50_NW BOM_R64_NE BOM_R64_SE BOM_R64_SW BOM_R64_NW BOM_ROCI BOM_POCI BOM_EYE BOM_POS_METHOD BOM_PRES_METHOD NADI_LAT NADI_LON NADI_CAT NADI_WIND NADI_PRES WELLINGTON_LAT WELLINGTON_LON WELLINGTON_WIND WELLINGTON_PRES DS824_LAT DS824_LON DS824_STAGE DS824_WIND DS824_PRES TD9636_LAT TD9636_LON TD9636_STAGE TD9636_WIND TD9636_PRES TD9635_LAT TD9635_LON TD9635_WIND TD9635_PRES TD9635_ROCI NEUMANN_LAT NEUMANN_LON NEUMANN_CLASS NEUMANN_WIND NEUMANN_PRES MLC_LAT MLC_LON MLC_CLASS MLC_WIND MLC_PRES USA_GUST BOM_GUST BOM_GUST_PER REUNION_GUST REUNION_GUST_PER USA_SEAHGT USA_SEARAD_NE USA_SEARAD_SE USA_SEARAD_SW USA_SEARAD_NW STORM_SPEED STORM_DIR
1946292N11131 1946 62 WP MM ALMA 1946-10-18 12:00:00 TS 10.7000 131.000 main 552 535 O________OOO__ jtwc_wp WP131946 10.7000 131.000 45 0 10.7000 131.000 TC 45 10.7000 131.000 2 45 10.7000 131.000 45 993 300 6 301
1946292N11131 1946 62 WP MM ALMA 1946-10-18 15:00:00 TS 10.8500 130.750 main 535 512 P________PPP__ WP131946 10.8150 130.750 50 0 10.8150 130.750 TC 50 10.9548 130.750 2 50 10.8150 130.750 50 990 360 6 305
1946292N11131 1946 62 WP MM ALMA 1946-10-18 18:00:00 TS 11.0494 130.500 main 512 491 O________OPO__ jtwc_wp WP131946 11.0000 130.500 55 0 11.0000 130.500 TC 55 11.1977 130.501 2 55 11.0000 130.500 55 988 420 7 314
1946292N11131 1946 62 WP MM ALMA 1946-10-18 21:00:00 TS 11.3235 130.250 main 492 463 P________PPP__ WP131946 11.2925 130.250 60 0 11.2925 130.250 TC 60 11.4167 130.250 2 60 11.2925 130.250 60 985 390 7 318
1946292N11131 1946 62 WP MM ALMA 1946-10-19 00:00:00 TS 11.6000 130.000 main 463 443 O________OOO__ jtwc_wp WP131946 11.6000 130.000 65 1 11.6000 130.000 TC 65 11.6000 130.000 3 65 11.6000 130.000 65 983 360 7 315
1946292N11131 1946 62 WP MM ALMA 1946-10-19 03:00:00 TS 11.8082 129.750 main 434 415 P________PPP__ WP131946 11.8300 129.750 67 1 11.8300 129.750 TC 67 11.7431 129.750 3 67 11.8300 129.750 67 980 360 6 307
1946292N11131 1946 62 WP MM ALMA 1946-10-19 06:00:00 TS 11.9675 129.500 main 418 397 O________OPO__ jtwc_wp WP131946 12.0000 129.500 70 1 12.0000 129.500 TC 70 11.8699 129.499 3 70 12.0000 129.500 70 978 360 5 297
1946292N11131 1946 62 WP MM ALMA 1946-10-19 09:00:00 TS 12.0554 129.255 main 400 373 P________PPP__ WP131946 12.0700 129.257 72 1 12.0700 129.257 TC 72 12.0118 129.250 3 72 12.0700 129.257 72 974 390 5 295
1946292N11131 1946 62 WP MM ALMA 1946-10-19 12:00:00 TS 12.2000 129.000 main 373 349 O________OOO__ jtwc_wp WP131946 12.2000 129.000 75 1 12.2000 129.000 TC 75 12.2000 129.000 4 75 12.2000 129.000 75 971 420 7 312
1946292N11131 1946 62 WP MM ALMA 1946-10-19 15:00:00 TS 12.5447 128.699 main 349 324 P________PPP__ WP131946 12.5775 128.693 77 1 12.5775 128.693 TC 77 12.4464 128.718 4 77 12.5775 128.693 77 968 390 9 322
1946292N11131 1946 62 WP MM ALMA 1946-10-19 18:00:00 TS 12.9363 128.410 main 324 309 O________OPO__ jtwc_wp WP131946 13.0000 128.400 80 1 13.0000 128.400 TC 80 12.7452 128.440 4 80 13.0000 128.400 80 965 360 8 323
1946292N11131 1946 62 WP MM ALMA 1946-10-19 21:00:00 TS 13.2116 128.176 main 313 302 P________PPP__ WP131946 13.2500 128.170 82 1 13.2500 128.170 TC 82 13.0964 128.193 4 82 13.2500 128.170 82 961 420 7 325
1946292N11131 1946 62 WP MM ALMA 1946-10-20 00:00:00 TS 13.5000 128.000 main 307 303 O________OOO__ jtwc_wp WP131946 13.5000 128.000 85 2 13.5000 128.000 TC 85 13.5000 128.000 4 85 13.5000 128.000 85 957 480 7 336
1946292N11131 1946 62 WP MM ALMA 1946-10-20 03:00:00 TS 13.8791 127.873 main 322 320 P________PPP__ WP131946 13.8475 127.870 92 2 13.8475 127.870 TC 92 13.9739 127.880 4 91 13.8475 127.870 92 952 480 9 348
1946292N11131 1946 62 WP MM ALMA 1946-10-20 06:00:00 TS 14.3481 127.804 main 342 342 O________OPO__ jtwc_wp WP131946 14.3000 127.800 100 3 14.3000 127.800 TC 100 14.4923 127.817 4 97 14.3000 127.800 100 948 480 11 356
1946292N11131 1946 62 WP MM ALMA 1946-10-20 09:00:00 TS 14.9455 127.788 main 383 383 P________PPP__ WP131946 14.9225 127.785 105 3 14.9225 127.785 TC 105 15.0146 127.796 4 103 14.9225 127.785 105 944 480 12 359
1946292N11131 1946 62 WP MM ALMA 1946-10-20 12:00:00 TS 15.5000 127.800 main 407 407 O________OOO__ jtwc_wp WP131946 15.5000 127.800 110 3 15.5000 127.800 TC 110 15.5000 127.800 4 110 15.5000 127.800 110 941 480 9 2
1946292N11131 1946 62 WP MM ALMA 1946-10-20 15:00:00 TS 15.8057 127.793 main 422 422 P________PPP__ WP131946 15.7725 127.793 112 3 15.7725 127.793 TC 112 15.9052 127.795 4 112 15.7725 127.793 112 938 480 6 0
1946292N11131 1946 62 WP MM ALMA 1946-10-20 18:00:00 TS 16.0669 127.803 main 440 440 O________OPO__ jtwc_wp WP131946 16.0000 127.800 115 4 16.0000 127.800 TC 115 16.2674 127.812 4 115 16.0000 127.800 115 935 480 7 5
1946292N11131 1946 62 WP MM ALMA 1946-10-20 21:00:00 TS 16.4921 127.844 main 466 466 P________PPP__ WP131946 16.4575 127.842 117 4 16.4575 127.842 TC 117 16.5959 127.848 4 117 16.4575 127.842 117 932 480 8 6
1946292N11131 1946 62 WP MM ALMA 1946-10-21 00:00:00 TS 16.9000 127.900 main 503 503 O________OOO__ jtwc_wp WP131946 16.9000 127.900 120 4 16.9000 127.900 TC 120 16.9000 127.900 4 120 16.9000 127.900 120 930 480 7 8
1946292N11131 1946 62 WP MM ALMA 1946-10-21 03:00:00 TS 17.1333 127.940 main 518 518 P________PPP__ WP131946 17.1150 127.943 120 4 17.1150 127.943 TC 120 17.1883 127.933 4 120 17.1150 127.943 120 929 420 5 11
1946292N11131 1946 62 WP MM ALMA 1946-10-21 06:00:00 TS 17.3393 127.996 main 541 541 O________OPO__ jtwc_wp WP131946 17.3000 128.000 120 4 17.3000 128.000 TC 120 17.4573 127.983 4 120 17.3000 128.000 120 929 360 5 13
1946292N11131 1946 62 WP MM ALMA 1946-10-21 09:00:00 TS 17.6512 128.064 main 580 580 P________PPP__ WP131946 17.6274 128.063 120 4 17.6274 128.063 TC 120 17.7226 128.067 4 120 17.6274 128.063 120 929 360 7 16
1946292N11131 1946 62 WP MM ALMA 1946-10-21 12:00:00 TS 18.0000 128.200 main 611 611 O________OOO__ jtwc_wp WP131946 18.0000 128.200 120 4 18.0000 128.200 TC 120 18.0000 128.200 4 120 18.0000 128.200 120 930 360 8 29
1946292N11131 1946 62 WP MM ALMA 1946-10-21 15:00:00 TS 18.3387 128.458 main 652 652 P________PPP__ WP131946 18.3576 128.485 120 4 18.3576 128.485 TC 120 18.2821 128.376 4 118 18.3576 128.485 120 930 390 9 38
1946292N11131 1946 62 WP MM ALMA 1946-10-21 18:00:00 TS 18.6706 128.751 main 686 686 O________OPO__ jtwc_wp WP131946 18.7000 128.800 120 4 18.7000 128.800 TC 120 18.5823 128.604 4 117 18.7000 128.800 120 931 420 8 37
1946292N11131 1946 62 WP MM ALMA 1946-10-21 21:00:00 TS 18.9621 128.959 main 708 708 P________PPP__ WP131946 18.9773 128.986 117 4 18.9773 128.986 TC 117 18.9163 128.879 4 116 18.9773 128.986 117 932 420 8 34
1946292N11131 1946 62 WP MM ALMA 1946-10-22 00:00:00 TS 19.3000 129.200 main 733 733 O________OOO__ jtwc_wp WP131946 19.3000 129.200 115 4 19.3000 129.200 TC 115 19.3000 129.200 4 115 19.3000 129.200 115 933 420 10 35
1946292N11131 1946 62 WP MM ALMA 1946-10-22 03:00:00 TS 19.7691 129.568 main 782 782 P________PPP__ WP131946 19.7701 129.570 115 4 19.7701 129.570 TC 115 19.7662 129.564 4 113 19.7701 129.570 115 934 450 12 37
1946292N11131 1946 62 WP MM ALMA 1946-10-22 06:00:00 TS 20.2945 129.992 main 835 835 O________OPO__ jtwc_wp WP131946 20.3000 130.000 115 4 20.3000 130.000 TC 115 20.2779 129.969 4 112 20.3000 130.000 115 936 480 13 37
1946292N11131 1946 62 WP MM ALMA 1946-10-22 09:00:00 TS 20.8170 130.403 main 889 889 P________PPP__ WP131946 20.8225 130.408 112 3 20.8225 130.408 TC 112 20.8006 130.389 4 111 20.8225 130.408 112 937 450 13 37
1946292N11131 1946 62 WP MM ALMA 1946-10-22 12:00:00 TS 21.3000 130.800 main 946 946 O________OOO__ jtwc_wp WP131946 21.3000 130.800 110 3 21.3000 130.800 TC 110 21.3000 130.800 4 110 21.3000 130.800 110 939 420 11 39
1946292N11131 1946 62 WP MM ALMA 1946-10-22 15:00:00 TS 21.6616 131.142 main 990 990 P________PPP__ WP131946 21.6574 131.158 107 3 21.6574 131.158 TC 107 21.6742 131.096 4 107 21.6574 131.158 107 941 390 9 41
1946292N11131 1946 62 WP MM ALMA 1946-10-22 18:00:00 TS 22.0074 131.472 main 1008 965 O________OPO__ jtwc_wp WP131946 22.0000 131.500 105 3 22.0000 131.500 TC 105 22.0297 131.387 4 105 22.0000 131.500 105 944 360 10 38
1946292N11131 1946 62 WP MM ALMA 1946-10-22 21:00:00 TS 22.4028 131.777 main 966 916 P________PPP__ WP131946 22.3969 131.791 102 3 22.3969 131.791 TC 102 22.4204 131.735 4 102 22.3969 131.791 102 947 360 11 37
1946292N11131 1946 62 WP MM ALMA 1946-10-23 00:00:00 TS 22.9000 132.200 main 916 862 O________OOO__ jtwc_wp WP131946 22.9000 132.200 100 3 22.9000 132.200 TC 100 22.9000 132.200 4 100 22.9000 132.200 100 950 360 15 42
1946292N11131 1946 62 WP MM ALMA 1946-10-23 03:00:00 TS 23.5299 132.860 main 865 811 P________PPP__ WP131946 23.5551 132.875 95 2 23.5551 132.875 TC 95 23.4540 132.816 4 97 23.5551 132.875 95 953 390 19 45
1946292N11131 1946 62 WP MM ALMA 1946-10-23 06:00:00 TS 24.2522 133.666 main 804 771 O________OPO__ jtwc_wp WP131946 24.3000 133.700 90 2 24.3000 133.700 TC 90 24.1088 133.564 4 95 24.3000 133.700 90 956 420 21 46
1946292N11131 1946 62 WP MM ALMA 1946-10-23 09:00:00 TS 24.9685 134.482 main 766 740 P________PPP__ WP131946 24.9966 134.500 90 2 24.9966 134.500 TC 90 24.8841 134.429 4 92 24.9966 134.500 90 959 390 22 45
1946292N11131 1946 62 WP MM ALMA 1946-10-23 12:00:00 TS 25.8000 135.400 main 736 707 O________OOO__ jtwc_wp WP131946 25.8000 135.400 90 2 25.8000 135.400 TC 90 25.8000 135.400 4 90 25.8000 135.400 90 963 360 25 44
1946292N11131 1946 62 WP MM ALMA 1946-10-23 15:00:00 TS 26.7858 136.445 main 706 634 P________PPP__ WP131946 26.7596 136.442 87 2 26.7596 136.442 TC 87 26.8645 136.454 4 87 26.7596 136.442 87 966 330 29 43
1946292N11131 1946 62 WP MM ALMA 1946-10-23 18:00:00 TS 27.9397 137.604 main 637 548 O________OPO__ jtwc_wp WP131946 27.9000 137.600 85 2 27.9000 137.600 TC 85 28.0590 137.615 4 85 27.9000 137.600 85 969 300 33 41
1946292N11131 1946 62 WP MM ALMA 1946-10-23 21:00:00 TS 29.2513 138.837 main 538 470 P________PPP__ WP131946 29.2272 138.835 82 1 29.2272 138.835 TC 82 29.3235 138.845 4 82 29.2272 138.835 82 972 330 34 39
1946292N11131 1946 62 WP MM ALMA 1946-10-24 00:00:00 TS 30.6000 140.100 main 462 366 O________OOO__ jtwc_wp WP131946 30.6000 140.100 80 1 30.6000 140.100 TC 80 30.6000 140.100 4 80 30.6000 140.100 80 975 360 33 40
1946292N11131 1946 62 WP MM ALMA 1946-10-24 03:00:00 TS 31.8264 141.309 main 369 314 P________PPP__ WP131946 31.8207 141.297 75 1 31.8207 141.297 TC 75 31.8436 141.345 4 75 31.8207 141.297 75 977 330 32 40
1946292N11131 1946 62 WP MM ALMA 1946-10-24 06:00:00 TS 33.0106 142.517 main 312 303 O________OPO__ jtwc_wp WP131946 33.0000 142.500 70 1 33.0000 142.500 TC 70 33.0531 142.584 4 70 33.0000 142.500 70 979 300 31 41
1946292N11131 1946 62 WP MM ALMA 1946-10-24 09:00:00 TS 34.1638 143.736 main 304 304 P________PPP__ WP131946 34.1517 143.720 65 1 34.1517 143.720 TC 65 34.2365 143.831 4 65 34.1517 143.720 65 981 270 32 42
1946292N11131 1946 62 WP MM ALMA 1946-10-24 12:00:00 TS 35.4000 145.100 main 380 380 O________OOO__ jtwc_wp WP131946 35.4000 145.100 60 0 35.4000 145.100 TC 60 35.4000 145.100 2 60 35.4000 145.100 60 983 240 36 40
1946292N11131 1946 62 WP MM ALMA 1946-10-24 15:00:00 TS 36.8925 146.576 main 474 474 P________P_P__ WP131946 36.9036 146.524 55 0 36.9036 146.524 TC 55 2 36.8477 146.785 55 984 210 42 44
1946292N11131 1946 62 WP MM ALMA 1946-10-24 18:00:00 TS 38.4000 148.700 main 581 581 O________O_O__ jtwc_wp WP131946 38.4000 148.700 50 0 38.4000 148.700 TC 50 2 38.4000 148.700 50 986 180 54 60
1946292N11131 1946 62 WP MM ALMA 1946-10-24 21:00:00 TS 39.6013 152.592 main 705 702 P________P____ WP131946 39.6013 152.592 50 0 39.6013 152.592 TC 50 2 64 71
1946292N11131 1946 62 WP MM ALMA 1946-10-25 00:00:00 TS 40.5000 156.500 main 788 788 O________O____ jtwc_wp WP131946 40.5000 156.500 50 0 40.5000 156.500 TC 50 49 69
1946292N11131 1946 62 WP MM ALMA 1946-10-25 03:00:00 TS 41.3077 158.588 main 845 844 P________P____ WP131946 41.3077 158.588 50 0 41.3077 158.588 TC 50 30 60
1946292N11131 1946 62 WP MM ALMA 1946-10-25 06:00:00 TS 42.0000 160.000 main 888 888 O________O____ jtwc_wp WP131946 42.0000 160.000 50 0 42.0000 160.000 TC 50 25 70
1946292N11131 1946 62 WP MM ALMA 1946-10-25 09:00:00 TS 42.1616 161.789 main 995 990 P________P____ WP131946 42.1616 161.789 50 0 42.1616 161.789 TC 50 28 69
1946292N11131 1946 62 WP MM ALMA 1946-10-25 12:00:00 TS 43.0000 163.500 main 985 839 O________O____ jtwc_wp WP131946 43.0000 163.500 50 0 43.0000 163.500 TC 50 45 34
1946292N11131 1946 62 WP MM ALMA 1946-10-25 15:00:00 TS 45.8858 165.209 main 826 663 P________P____ WP131946 45.8858 165.209 47 0 45.8858 165.209 TC 47 65 22
1946292N11131 1946 62 WP MM ALMA 1946-10-25 18:00:00 TS 49.0000 167.000 main 660 625 O________O____ jtwc_wp WP131946 49.0000 167.000 45 0 49.0000 167.000 TC 45 54 26
1946292N11131 1946 62 WP MM ALMA 1946-10-25 21:00:00 TS 50.7264 168.776 main 630 627 P________P____ WP131946 50.7264 168.776 55 0 50.7264 168.776 TC 55 33 42
1946292N11131 1946 62 WP MM ALMA 1946-10-26 00:00:00 TS 51.5000 170.500 main 660 O________O____ jtwc_wp WP131946 51.5000 170.500 65 1 51.5000 170.500 TC 65 26 54

Digital Typhoon Data and Search

About IBTrACS Database

This database is a web-friendly format of International Best Track Archive for Climate Stewardship (IBTrACS), a global best track data archive curated by NOAA dating back to 1842.

Updated: 2021-10-25